Time;durP1;ratioP1;P1;durP2;ratioP2;P2;SDS_P1;SDS_P2;PMS_P1;PMS_P2;Temp;Humidity;BMP_temperature;BMP_pressure;BME280_temperature;BME280_humidity;BME280_pressure;Samples;Min_cycle;Max_cycle;Signal;HPM_P1;HPM_P2
2023/06/15 00:00:39;;;;;;;8.02;5.90;;;13.00;99.90;;;;;;6123090;23;20046;-85
2023/06/15 00:03:26;;;;;;;8.20;5.55;;;12.80;99.90;;;;;;6121459;23;20075;-85
2023/06/15 00:06:14;;;;;;;10.00;5.72;;;12.70;99.90;;;;;;6114200;23;20030;-85
2023/06/15 00:09:03;;;;;;;10.30;5.30;;;12.70;99.90;;;;;;6110565;23;20026;-85
2023/06/15 00:11:51;;;;;;;7.95;4.90;;;12.60;99.90;;;;;;6113390;23;20022;-87
2023/06/15 00:14:38;;;;;;;7.60;5.43;;;12.60;99.90;;;;;;6104515;23;20034;-85
2023/06/15 00:17:29;;;;;;;7.47;5.50;;;12.60;99.90;;;;;;6103375;23;20049;-84
2023/06/15 00:20:17;;;;;;;7.85;5.25;;;12.70;99.90;;;;;;6125177;23;20022;-87
2023/06/15 00:23:08;;;;;;;6.22;5.05;;;12.70;99.90;;;;;;6097235;23;20026;-85
2023/06/15 00:25:58;;;;;;;9.57;4.93;;;12.80;99.90;;;;;;6099226;23;20026;-86
2023/06/15 00:28:45;;;;;;;7.88;4.57;;;12.90;99.90;;;;;;6093837;23;20030;-86
2023/06/15 00:31:34;;;;;;;6.55;5.22;;;12.90;99.90;;;;;;6095652;23;20041;-85
2023/06/15 00:34:24;;;;;;;10.32;5.65;;;13.00;99.90;;;;;;6096223;23;20418;-87
2023/06/15 00:37:11;;;;;;;6.85;4.82;;;13.10;99.90;;;;;;6094638;23;20023;-86
2023/06/15 00:39:59;;;;;;;6.72;4.57;;;13.10;99.90;;;;;;6095711;23;20505;-84
2023/06/15 00:42:46;;;;;;;10.77;6.53;;;13.20;99.90;;;;;;6096987;23;20026;-84
2023/06/15 00:45:33;;;;;;;8.48;6.07;;;13.20;99.90;;;;;;6097457;23;20041;-85
2023/06/15 00:48:21;;;;;;;8.18;6.05;;;13.20;99.90;;;;;;6095064;23;20037;-85
2023/06/15 00:51:12;;;;;;;9.75;5.93;;;13.10;99.90;;;;;;6097086;23;20463;-85
2023/06/15 00:54:00;;;;;;;7.82;5.97;;;13.00;99.90;;;;;;6095234;23;20030;-86
2023/06/15 00:56:52;;;;;;;11.18;5.30;;;13.00;99.90;;;;;;6098014;23;20054;-86
2023/06/15 00:59:42;;;;;;;8.50;6.07;;;13.00;99.90;;;;;;6117936;23;20030;-84
2023/06/15 01:02:34;;;;;;;9.13;5.57;;;13.00;99.90;;;;;;6097353;23;20611;-85
2023/06/15 01:05:23;;;;;;;;;;;13.00;99.90;;;;;;6098991;23;20326;-85
2023/06/15 01:08:12;;;;;;;11.80;5.68;;;12.90;99.90;;;;;;6097879;23;19936;-85
2023/06/15 01:10:59;;;;;;;9.73;6.05;;;12.80;99.90;;;;;;6097065;23;20027;-86
2023/06/15 01:13:48;;;;;;;9.88;5.82;;;12.70;99.90;;;;;;6094917;23;20310;-85
2023/06/15 01:16:43;;;;;;;7.82;5.38;;;12.50;99.90;;;;;;6093357;23;20030;-85
2023/06/15 01:19:54;;;;;;;7.97;6.00;;;12.40;99.90;;;;;;6097195;23;20026;-86
2023/06/15 01:23:05;;;;;;;8.82;4.70;;;12.40;99.90;;;;;;6096763;23;20026;-85
2023/06/15 01:26:05;;;;;;;10.02;5.18;;;12.40;99.90;;;;;;6094405;23;20097;-86
2023/06/15 01:28:53;;;;;;;7.75;4.88;;;12.50;99.90;;;;;;6117324;23;20430;-86
2023/06/15 01:31:43;;;;;;;9.40;5.10;;;12.40;99.90;;;;;;6096351;23;20105;-85
2023/06/15 01:34:31;;;;;;;7.13;4.88;;;12.50;99.90;;;;;;6098481;23;20158;-86
2023/06/15 01:37:21;;;;;;;8.68;5.22;;;12.50;99.90;;;;;;6094892;23;20592;-86
2023/06/15 01:40:09;;;;;;;6.22;4.85;;;12.50;99.90;;;;;;6094138;23;20030;-85
2023/06/15 01:42:57;;;;;;;7.03;5.18;;;12.50;99.90;;;;;;6116678;23;20033;-87
2023/06/15 01:45:45;;;;;;;8.50;5.00;;;12.50;99.90;;;;;;6097746;23;20307;-87
2023/06/15 01:48:33;;;;;;;6.88;5.00;;;12.50;99.90;;;;;;6096571;23;20058;-87
2023/06/15 01:51:23;;;;;;;6.35;4.57;;;12.50;99.90;;;;;;6099492;23;20035;-83
2023/06/15 01:54:10;;;;;;;9.48;5.07;;;12.40;99.90;;;;;;6095905;23;20030;-84
2023/06/15 01:56:58;;;;;;;6.72;4.70;;;12.30;99.90;;;;;;6099205;23;20019;-87
2023/06/15 01:59:54;;;;;;;6.72;4.78;;;12.30;99.90;;;;;;6096622;23;20101;-86
2023/06/15 02:02:41;;;;;;;5.70;5.07;;;12.20;99.90;;;;;;6096080;23;20026;-85
2023/06/15 02:05:28;;;;;;;6.88;4.97;;;12.20;99.90;;;;;;6097926;23;20027;-86
2023/06/15 02:08:18;;;;;;;9.77;5.57;;;12.20;99.90;;;;;;6100573;23;20034;-86
2023/06/15 02:11:06;;;;;;;6.70;4.80;;;12.10;99.90;;;;;;6096344;23;20113;-87
2023/06/15 02:13:53;;;;;;;9.55;5.50;;;12.10;99.90;;;;;;6096917;23;20532;-85
2023/06/15 02:16:40;;;;;;;7.18;5.10;;;12.10;99.90;;;;;;6096442;23;20041;-85
2023/06/15 02:19:28;;;;;;;9.10;5.72;;;12.10;99.90;;;;;;6095770;23;20018;-86
2023/06/15 02:22:16;;;;;;;9.07;4.85;;;12.00;99.90;;;;;;6096573;23;20130;-85
2023/06/15 02:25:04;;;;;;;7.88;5.07;;;12.10;99.90;;;;;;6099511;23;20123;-86
2023/06/15 02:27:52;;;;;;;8.75;5.18;;;12.10;99.90;;;;;;6100141;23;20037;-85
2023/06/15 02:30:41;;;;;;;7.72;5.13;;;12.10;99.90;;;;;;6095907;23;20034;-86
2023/06/15 02:33:28;;;;;;;7.55;5.00;;;12.00;99.90;;;;;;6098133;23;20022;-87
2023/06/15 02:36:19;;;;;;;9.30;5.88;;;12.10;99.90;;;;;;6097792;23;20042;-86
2023/06/15 02:39:07;;;;;;;9.43;5.57;;;12.10;99.90;;;;;;6100006;23;20054;-86
2023/06/15 02:41:57;;;;;;;8.18;5.35;;;12.20;99.90;;;;;;6098044;23;20030;-85
2023/06/15 02:44:44;;;;;;;8.23;6.13;;;12.30;99.90;;;;;;6098411;23;20030;-85
2023/06/15 02:47:34;;;;;;;8.90;5.72;;;12.30;99.90;;;;;;6097881;23;20026;-85
2023/06/15 02:50:21;;;;;;;9.23;5.78;;;12.30;99.90;;;;;;6099337;23;20129;-85
2023/06/15 02:53:08;;;;;;;8.98;5.85;;;12.40;99.90;;;;;;6097432;23;20037;-85
2023/06/15 02:56:02;;;;;;;8.88;5.60;;;12.40;99.90;;;;;;6096376;23;20034;-85
2023/06/15 02:58:55;;;;;;;11.18;6.38;;;12.40;99.90;;;;;;6118133;23;20102;-85
2023/06/15 03:01:49;;;;;;;10.85;5.85;;;12.40;99.90;;;;;;6095061;23;20038;-86
2023/06/15 03:04:44;;;;;;;7.72;5.18;;;12.40;99.90;;;;;;6097893;23;20027;-85
2023/06/15 03:07:34;;;;;;;9.55;5.57;;;12.40;99.90;;;;;;6097553;23;20315;-85
2023/06/15 03:10:21;;;;;;;6.30;5.40;;;12.40;99.90;;;;;;6118588;23;20030;-86
2023/06/15 03:13:09;;;;;;;9.38;5.90;;;12.50;99.90;;;;;;6097764;23;20406;-86
2023/06/15 03:15:56;;;;;;;6.30;5.57;;;12.40;99.90;;;;;;6094011;23;20036;-85
2023/06/15 03:18:43;;;;;;;9.65;5.82;;;12.50;99.90;;;;;;6096937;23;20026;-86
2023/06/15 03:21:33;;;;;;;7.93;5.85;;;12.50;99.90;;;;;;6096923;23;20026;-87
2023/06/15 03:24:21;;;;;;;11.00;6.20;;;12.50;99.90;;;;;;6098988;23;20027;-85
2023/06/15 03:27:10;;;;;;;8.65;5.88;;;12.60;99.90;;;;;;6095053;23;20109;-86
2023/06/15 03:30:01;;;;;;;8.18;6.50;;;12.60;99.90;;;;;;6094961;23;20032;-87
2023/06/15 03:32:48;;;;;;;11.68;6.20;;;12.60;99.90;;;;;;6098544;23;20041;-85
2023/06/15 03:35:41;;;;;;;9.85;6.47;;;12.60;99.90;;;;;;6097311;23;20030;-85
2023/06/15 03:38:28;;;;;;;8.25;6.25;;;12.70;99.90;;;;;;6098044;23;20033;-84
2023/06/15 03:41:15;;;;;;;8.25;6.30;;;12.70;99.90;;;;;;6122577;23;20448;-85
2023/06/15 03:44:03;;;;;;;9.18;5.38;;;12.70;99.90;;;;;;6115522;23;20026;-85
2023/06/15 03:46:50;;;;;;;9.55;5.47;;;12.70;99.90;;;;;;6116721;23;20046;-84
2023/06/15 03:49:37;;;;;;;7.30;5.85;;;12.60;99.90;;;;;;6134087;23;20109;-86
2023/06/15 03:52:28;;;;;;;6.97;5.85;;;12.60;99.90;;;;;;6121144;23;20034;-87
2023/06/15 03:55:17;;;;;;;10.57;5.68;;;12.50;99.90;;;;;;6098591;23;20027;-88
2023/06/15 03:58:06;;;;;;;12.20;6.30;;;12.50;99.90;;;;;;6096275;23;20042;-87
2023/06/15 04:00:56;;;;;;;8.32;6.68;;;12.50;99.90;;;;;;6120668;23;20026;-88
2023/06/15 04:03:46;;;;;;;10.85;6.50;;;12.50;99.90;;;;;;6106142;23;20058;-88
2023/06/15 04:06:35;;;;;;;8.02;6.03;;;12.50;99.90;;;;;;6122546;23;20683;-90
2023/06/15 04:09:23;;;;;;;8.50;6.30;;;12.40;99.90;;;;;;6120366;23;20135;-89
2023/06/15 04:12:10;;;;;;;9.63;5.88;;;12.30;99.90;;;;;;6119706;23;20030;-88
2023/06/15 04:15:02;;;;;;;10.18;6.90;;;12.30;99.90;;;;;;6096059;23;20030;-86
2023/06/15 04:17:50;;;;;;;14.95;7.75;;;12.20;99.90;;;;;;6118310;23;20026;-85
2023/06/15 04:20:40;;;;;;;8.82;6.53;;;12.20;99.90;;;;;;6097846;23;20034;-87
2023/06/15 04:23:27;;;;;;;11.60;6.82;;;12.20;99.90;;;;;;6095786;23;20041;-86
2023/06/15 04:26:14;;;;;;;10.60;7.50;;;12.20;99.90;;;;;;6099010;23;20030;-88
2023/06/15 04:29:04;;;;;;;12.68;6.70;;;12.20;99.90;;;;;;6098158;23;20034;-86
2023/06/15 04:31:54;;;;;;;13.93;7.57;;;12.20;99.90;;;;;;6095325;23;20026;-87
2023/06/15 04:34:45;;;;;;;11.80;6.80;;;12.20;99.90;;;;;;6097849;23;20034;-87
2023/06/15 04:37:32;;;;;;;15.77;8.27;;;12.20;99.90;;;;;;6096429;23;20030;-88
2023/06/15 04:40:20;;;;;;;10.80;7.60;;;12.10;99.90;;;;;;6098199;23;20414;-88
2023/06/15 04:43:11;;;;;;;11.32;7.55;;;12.00;99.90;;;;;;6097458;23;20270;-87
2023/06/15 04:45:58;;;;;;;10.63;7.50;;;11.90;99.90;;;;;;6118079;23;20037;-88
2023/06/15 04:48:49;;;;;;;7.97;6.72;;;11.90;1.00;;;;;;6094750;23;20397;-87
2023/06/15 04:51:38;;;;;;;11.88;7.70;;;11.80;1.00;;;;;;6097572;23;20031;-86
2023/06/15 04:54:25;;;;;;;11.68;7.20;;;11.80;1.00;;;;;;6096786;23;20112;-85
2023/06/15 04:57:12;;;;;;;9.98;7.30;;;11.90;1.00;;;;;;6096630;23;20109;-86
2023/06/15 05:00:00;;;;;;;12.70;7.50;;;11.90;1.00;;;;;;6099257;23;20030;-87
2023/06/15 05:02:47;;;;;;;12.07;7.72;;;11.90;1.00;;;;;;6119827;23;20085;-87
2023/06/15 05:05:35;;;;;;;11.55;7.60;;;12.10;1.00;;;;;;6098148;23;20022;-88
2023/06/15 05:08:22;;;;;;;12.57;8.07;;;12.30;1.00;;;;;;6097914;23;20395;-87
2023/06/15 05:11:12;;;;;;;11.45;7.57;;;12.50;1.00;;;;;;6097998;23;20030;-86
2023/06/15 05:14:00;;;;;;;12.02;7.50;;;12.80;99.90;;;;;;6120561;23;20041;-85
2023/06/15 05:16:49;;;;;;;15.13;7.45;;;13.00;99.90;;;;;;6099239;23;20041;-87
2023/06/15 05:19:40;;;;;;;9.50;6.50;;;13.20;99.90;;;;;;6100293;23;20029;-87
2023/06/15 05:22:28;;;;;;;9.77;6.32;;;13.40;99.90;;;;;;6097630;23;20082;-88
2023/06/15 05:25:17;;;;;;;10.95;6.50;;;13.60;99.90;;;;;;6100107;23;20022;-86
2023/06/15 05:28:07;;;;;;;14.43;7.00;;;13.90;99.90;;;;;;6102307;23;20030;-86
2023/06/15 05:30:54;;;;;;;12.02;6.65;;;14.10;99.90;;;;;;6113014;23;20062;-87
2023/06/15 05:33:42;;;;;;;10.63;6.72;;;14.30;99.90;;;;;;6114086;23;20030;-87
2023/06/15 05:36:31;;;;;;;7.93;5.45;;;14.50;99.90;;;;;;6114750;23;20422;-86
2023/06/15 05:39:41;;;;;;;7.65;5.40;;;14.70;99.90;;;;;;6115596;23;20053;-87
2023/06/15 05:42:29;;;;;;;5.82;4.75;;;14.90;99.90;;;;;;6114741;23;20033;-87
2023/06/15 05:45:19;;;;;;;8.18;4.90;;;15.10;99.90;;;;;;6127633;23;20048;-90
2023/06/15 05:48:06;;;;;;;15.63;4.70;;;15.30;99.90;;;;;;6110720;23;20030;-86
2023/06/15 05:50:54;;;;;;;9.75;5.43;;;15.50;99.90;;;;;;6107522;23;20026;-87
2023/06/15 05:53:41;;;;;;;7.85;4.85;;;15.80;99.90;;;;;;6104856;23;20026;-89
2023/06/15 05:56:29;;;;;;;11.15;5.15;;;16.10;99.90;;;;;;6102597;23;20034;-86
2023/06/15 05:59:17;;;;;;;5.70;5.05;;;16.40;99.90;;;;;;6102036;23;20018;-88
2023/06/15 06:02:19;;;;;;;6.30;5.00;;;16.70;96.00;;;;;;6103486;23;20347;-89
2023/06/15 06:05:07;;;;;;;8.48;4.95;;;17.00;74.70;;;;;;6102559;23;20261;-89
2023/06/15 06:07:55;;;;;;;11.77;5.30;;;17.30;59.10;;;;;;6097392;23;20109;-88
2023/06/15 06:10:42;;;;;;;7.78;4.97;;;17.70;53.90;;;;;;6098345;23;20030;-87
2023/06/15 06:13:30;;;;;;;8.43;5.40;;;18.00;42.90;;;;;;6098785;23;20030;-87
2023/06/15 06:16:17;;;;;;;9.05;4.93;;;18.20;39.50;;;;;;6097737;23;20105;-87
2023/06/15 06:19:05;;;;;;;9.95;5.40;;;18.20;30.10;;;;;;6101144;23;20031;-89
2023/06/15 06:21:52;;;;;;;7.90;4.50;;;18.30;26.20;;;;;;6097743;23;20674;-85
2023/06/15 06:24:39;;;;;;;8.52;5.32;;;18.30;35.30;;;;;;6099008;23;20033;-86
2023/06/15 06:27:26;;;;;;;12.05;5.30;;;18.30;30.70;;;;;;6095308;23;20023;-87
2023/06/15 06:30:14;;;;;;;9.50;5.60;;;18.30;29.50;;;;;;6095882;23;20030;-90
2023/06/15 06:33:03;;;;;;;9.70;5.47;;;18.20;26.50;;;;;;6098873;23;20295;-88
2023/06/15 06:35:52;;;;;;;5.30;4.30;;;18.30;25.30;;;;;;6118652;23;20038;-85
2023/06/15 06:38:40;;;;;;;11.27;5.20;;;18.40;28.90;;;;;;6097213;23;20033;-87
2023/06/15 06:41:48;;;;;;;6.97;4.70;;;18.50;17.20;;;;;;6100336;23;20427;-86
2023/06/15 06:44:35;;;;;;;9.80;4.70;;;18.70;23.20;;;;;;6099379;23;20022;-88
2023/06/15 06:47:24;;;;;;;5.43;4.30;;;19.00;20.50;;;;;;6118731;23;20022;-85
2023/06/15 06:50:12;;;;;;;7.18;4.68;;;19.20;13.00;;;;;;6096404;23;20030;-87
2023/06/15 06:53:00;;;;;;;5.53;4.68;;;19.30;1.00;;;;;;6096380;23;20030;-88
2023/06/15 06:55:48;;;;;;;7.82;4.35;;;19.40;19.50;;;;;;6095712;23;20034;-87
2023/06/15 06:58:35;;;;;;;8.35;4.35;;;19.40;12.00;;;;;;6095953;23;20031;-87
2023/06/15 07:01:23;;;;;;;5.07;4.25;;;19.40;10.40;;;;;;6096516;23;20426;-87
2023/06/15 07:04:10;;;;;;;6.13;4.32;;;19.70;10.70;;;;;;6099878;23;20026;-88
2023/06/15 07:07:02;;;;;;;6.43;4.68;;;19.80;1.00;;;;;;6096425;23;20033;-86
2023/06/15 07:09:50;;;;;;;10.00;4.72;;;20.20;1.00;;;;;;6097527;23;20061;-86
2023/06/15 07:12:37;;;;;;;6.90;4.57;;;20.50;1.00;;;;;;6099976;23;20026;-87
2023/06/15 07:15:31;;;;;;;7.15;4.75;;;20.60;1.00;;;;;;6100207;23;20642;-86
2023/06/15 07:18:18;;;;;;;8.85;5.00;;;21.00;1.00;;;;;;6097523;23;20038;-88
2023/06/15 07:21:06;;;;;;;7.10;4.78;;;21.10;1.00;;;;;;6098218;23;20031;-85
2023/06/15 07:23:53;;;;;;;5.35;4.30;;;21.40;1.00;;;;;;6098296;23;20705;-86
2023/06/15 07:26:40;;;;;;;7.65;4.50;;;21.80;1.00;;;;;;6095129;23;20327;-85
2023/06/15 07:29:28;;;;;;;6.50;4.40;;;22.30;1.00;;;;;;6099683;23;20022;-89
2023/06/15 07:32:17;;;;;;;11.02;4.32;;;22.50;1.00;;;;;;6097175;23;20030;-86
2023/06/15 07:35:05;;;;;;;7.45;4.25;;;22.80;1.00;;;;;;6100268;23;20042;-89
2023/06/15 07:37:52;;;;;;;5.40;3.88;;;23.40;1.00;;;;;;6095744;23;20323;-88
2023/06/15 07:40:42;;;;;;;4.90;3.50;;;23.90;1.00;;;;;;6100681;23;20030;-88
2023/06/15 07:43:29;;;;;;;4.90;3.63;;;24.40;1.00;;;;;;6097648;23;20031;-87
2023/06/15 07:46:23;;;;;;;5.50;3.55;;;24.80;1.00;;;;;;6094821;23;20117;-86
2023/06/15 07:49:10;;;;;;;8.93;4.13;;;25.20;1.00;;;;;;6098858;23;20027;-89
2023/06/15 07:51:58;;;;;;;5.20;4.13;;;25.20;1.00;;;;;;6097035;23;20422;-88
2023/06/15 07:54:57;;;;;;;6.95;3.60;;;25.40;1.00;;;;;;6096412;23;20026;-88
2023/06/15 07:57:44;;;;;;;7.32;3.75;;;25.70;1.00;;;;;;6098684;23;20026;-85
2023/06/15 08:00:32;;;;;;;10.77;4.35;;;25.90;1.00;;;;;;6100239;23;20101;-88
2023/06/15 08:03:19;;;;;;;6.03;3.95;;;25.90;1.00;;;;;;6097527;23;20337;-85
2023/06/15 08:06:07;;;;;;;6.63;3.60;;;26.10;1.00;;;;;;6100175;23;20081;-88
2023/06/15 08:08:57;;;;;;;9.85;4.00;;;26.30;1.00;;;;;;6100530;23;20371;-87
2023/06/15 08:11:44;;;;;;;5.15;3.65;;;26.40;1.00;;;;;;6097686;23;20041;-86
2023/06/15 08:14:32;;;;;;;6.90;4.10;;;26.70;1.00;;;;;;6096913;23;20104;-89
2023/06/15 08:17:22;;;;;;;8.07;3.97;;;26.60;1.00;;;;;;6095365;23;20057;-88
2023/06/15 08:20:12;;;;;;;7.95;4.15;;;26.60;1.00;;;;;;6096588;23;20056;-88
2023/06/15 08:22:59;;;;;;;6.47;4.18;;;26.60;1.00;;;;;;6098218;23;20434;-88
2023/06/15 08:25:47;;;;;;;6.13;3.75;;;27.00;1.00;;;;;;6119166;23;20157;-89
2023/06/15 15:28:07;;;;;;;4.38;2.63;;;26.20;99.90;;;;;;6127560;23;20476;-87
2023/06/15 15:30:56;;;;;;;2.85;2.33;;;27.60;99.90;;;;;;6104669;23;20101;-83
2023/06/15 15:33:44;;;;;;;4.25;2.00;;;28.80;99.90;;;;;;6106980;23;20285;-86
2023/06/15 15:36:30;;;;;;;3.70;2.00;;;29.80;99.90;;;;;;6102016;23;20033;-87
2023/06/15 15:39:19;;;;;;;3.92;2.30;;;30.50;99.90;;;;;;6084426;23;20433;-84
2023/06/15 15:42:10;;;;;;;3.95;2.17;;;30.50;99.90;;;;;;6100294;23;20333;-83
2023/06/15 15:44:56;;;;;;;4.22;2.20;;;29.30;99.90;;;;;;6080682;23;20026;-85
2023/06/15 15:47:42;;;;;;;3.53;2.20;;;28.20;99.90;;;;;;6101574;23;20026;-88
2023/06/15 15:50:31;;;;;;;2.97;2.22;;;27.90;99.90;;;;;;6081558;23;20057;-85
2023/06/15 15:53:20;;;;;;;2.97;2.13;;;28.50;99.90;;;;;;6083155;23;20358;-86
2023/06/15 15:56:09;;;;;;;3.03;2.05;;;29.20;99.90;;;;;;6105073;23;20129;-87
2023/06/15 15:58:55;;;;;;;3.88;2.20;;;29.60;99.90;;;;;;6102489;23;20057;-88
2023/06/15 16:01:41;;;;;;;2.33;1.83;;;30.10;99.90;;;;;;6104755;23;20303;-87
2023/06/15 16:04:27;;;;;;;2.55;1.98;;;29.90;99.90;;;;;;6088495;23;20018;-87
2023/06/15 16:07:16;;;;;;;2.67;1.92;;;29.70;99.90;;;;;;6124463;23;20022;-85
2023/06/15 16:10:02;;;;;;;2.22;1.77;;;29.40;99.90;;;;;;6083163;23;20386;-85
2023/06/15 16:12:48;;;;;;;2.03;1.77;;;29.20;99.90;;;;;;6075784;23;20050;-84
2023/06/15 16:15:36;;;;;;;5.20;1.85;;;29.30;99.90;;;;;;6096404;23;20026;-86
2023/06/15 16:18:24;;;;;;;4.15;2.00;;;28.90;99.90;;;;;;6096107;23;20066;-86
2023/06/15 16:21:13;;;;;;;4.00;2.45;;;28.50;99.90;;;;;;6096903;23;20105;-86
2023/06/15 16:24:01;;;;;;;4.10;2.20;;;28.00;99.90;;;;;;6096845;23;20181;-87
2023/06/15 16:26:50;;;;;;;2.33;2.13;;;27.90;99.90;;;;;;6095263;23;20050;-84
2023/06/15 16:29:38;;;;;;;2.53;2.25;;;27.80;99.90;;;;;;6100231;23;20030;-85
2023/06/15 16:32:26;;;;;;;2.10;1.90;;;27.50;99.90;;;;;;6099858;23;20037;-85
2023/06/15 16:35:13;;;;;;;2.17;1.90;;;27.00;99.90;;;;;;6098640;23;20369;-84
2023/06/15 16:38:01;;;;;;;4.13;2.20;;;26.50;99.90;;;;;;6095427;23;20343;-86
2023/06/15 16:40:48;;;;;;;3.63;2.33;;;26.10;99.90;;;;;;6096849;23;20041;-85
2023/06/15 16:43:38;;;;;;;3.65;2.20;;;25.80;99.90;;;;;;6099152;23;20549;-85
2023/06/15 16:46:26;;;;;;;4.97;2.28;;;25.60;99.90;;;;;;6094047;23;20037;-88
2023/06/15 16:49:14;;;;;;;7.90;2.20;;;25.30;99.90;;;;;;6095249;23;20316;-85
2023/06/15 16:52:08;;;;;;;2.95;2.38;;;24.80;99.90;;;;;;6095854;23;20105;-87
2023/06/15 16:54:55;;;;;;;5.68;2.17;;;24.40;99.90;;;;;;6097620;23;20030;-85
2023/06/15 16:57:43;;;;;;;3.22;2.60;;;24.20;99.90;;;;;;6093839;23;20026;-86
2023/06/15 17:00:30;;;;;;;2.50;2.00;;;23.90;99.90;;;;;;6094961;23;20097;-84
2023/06/15 17:03:18;;;;;;;4.97;2.58;;;23.70;99.90;;;;;;6093862;23;20054;-87
2023/06/15 17:06:05;;;;;;;5.65;3.13;;;23.60;99.90;;;;;;6097256;23;20418;-86
2023/06/15 17:08:53;;;;;;;4.38;2.50;;;23.50;99.90;;;;;;6095354;23;20033;-85
2023/06/15 17:11:40;;;;;;;3.17;2.60;;;23.30;99.90;;;;;;6104891;23;20029;-88
2023/06/15 17:14:33;;;;;;;2.85;2.30;;;23.30;99.90;;;;;;6105596;23;20030;-85
2023/06/15 17:17:21;;;;;;;3.63;2.60;;;23.20;99.90;;;;;;6124867;23;20416;-90
2023/06/15 17:20:12;;;;;;;5.53;2.50;;;23.10;99.90;;;;;;6125812;23;20026;-87
2023/06/15 17:23:00;;;;;;;7.25;2.45;;;23.00;99.90;;;;;;6126311;23;20026;-87
2023/06/15 17:25:48;;;;;;;2.90;2.60;;;22.90;99.90;;;;;;6107975;23;20041;-87
2023/06/15 17:28:35;;;;;;;4.65;2.40;;;22.80;99.90;;;;;;6127161;23;20041;-87
2023/06/15 17:31:29;;;;;;;5.95;2.72;;;22.70;99.90;;;;;;6128350;23;20030;-86
2023/06/15 17:34:17;;;;;;;7.30;3.35;;;22.70;99.90;;;;;;6130626;23;20026;-85
2023/06/15 17:37:07;;;;;;;3.35;2.60;;;22.60;99.90;;;;;;6127930;23;20084;-86
2023/06/15 17:39:56;;;;;;;5.97;5.28;;;22.50;99.90;;;;;;6126090;23;20030;-84
2023/06/15 17:42:47;;;;;;;7.78;6.45;;;22.50;99.90;;;;;;6128192;23;20026;-86
2023/06/15 17:45:35;;;;;;;6.90;4.43;;;22.30;99.90;;;;;;6128595;23;20033;-91
2023/06/15 17:48:25;;;;;;;3.17;2.83;;;22.20;99.90;;;;;;6130383;23;20049;-88
2023/06/15 17:51:26;;;;;;;4.40;3.40;;;22.20;99.90;;;;;;6128130;23;20036;-90
2023/06/15 17:54:14;;;;;;;3.05;2.55;;;22.10;99.90;;;;;;6127644;23;20018;-89
2023/06/15 17:57:03;;;;;;;3.00;2.70;;;22.00;99.90;;;;;;6128576;23;20100;-90
2023/06/15 17:59:52;;;;;;;3.75;2.85;;;22.00;99.90;;;;;;6106761;23;20034;-83
2023/06/15 18:02:42;;;;;;;5.03;3.33;;;21.80;99.90;;;;;;6127880;23;20028;-87
2023/06/15 18:05:30;;;;;;;5.30;3.08;;;21.80;99.90;;;;;;6127113;23;20026;-88
2023/06/15 18:08:19;;;;;;;5.18;2.70;;;21.70;99.90;;;;;;6132321;23;20130;-87
2023/06/15 18:11:09;;;;;;;3.25;2.80;;;21.60;99.90;;;;;;6108592;23;20026;-86
2023/06/15 18:13:59;;;;;;;4.97;3.35;;;21.40;99.90;;;;;;6126873;23;20038;-84
2023/06/15 18:16:49;;;;;;;5.88;2.80;;;21.20;99.90;;;;;;6126350;23;20108;-84
2023/06/15 18:19:43;;;;;;;3.83;2.80;;;21.10;99.90;;;;;;6106535;23;20128;-86
2023/06/15 18:22:37;;;;;;;4.65;2.97;;;21.00;99.90;;;;;;6124307;23;20030;-88
2023/06/15 18:25:42;;;;;;;4.43;3.50;;;20.90;99.90;;;;;;6126493;23;20038;-85
2023/06/15 18:28:55;;;;;;;4.82;3.22;;;20.90;99.90;;;;;;6123102;23;20029;-84
2023/06/15 18:35:56;;;;;;;4.38;2.95;;;20.70;99.90;;;;;;6126336;23;20072;-88
2023/06/15 18:38:57;;;;;;;4.60;3.25;;;20.60;99.90;;;;;;6108833;23;20022;-86
2023/06/15 18:41:58;;;;;;;4.32;3.25;;;20.40;99.90;;;;;;6110176;23;20030;-86
2023/06/15 18:44:52;;;;;;;4.50;3.17;;;20.30;99.90;;;;;;6107674;23;20052;-85
2023/06/15 18:47:39;;;;;;;4.03;2.83;;;20.10;99.90;;;;;;6126605;23;20061;-88
2023/06/15 18:50:30;;;;;;;2.83;2.53;;;19.90;99.90;;;;;;6126971;23;20489;-88
2023/06/15 18:53:18;;;;;;;5.45;3.20;;;19.70;99.90;;;;;;6127711;23;20033;-87
2023/06/15 18:56:05;;;;;;;6.72;3.40;;;19.60;99.90;;;;;;6125191;23;20128;-86
2023/06/15 18:58:54;;;;;;;4.03;3.15;;;19.50;99.90;;;;;;6105126;23;20108;-85
2023/06/15 19:01:44;;;;;;;3.13;2.83;;;19.30;99.90;;;;;;6126862;23;20037;-86
2023/06/15 19:04:33;;;;;;;4.07;3.33;;;19.20;99.90;;;;;;6127034;23;20026;-86
2023/06/15 19:07:25;;;;;;;4.82;3.67;;;19.00;99.90;;;;;;6125198;23;20121;-86
2023/06/15 19:10:13;;;;;;;3.28;2.95;;;18.90;99.90;;;;;;6126622;23;20051;-87
2023/06/15 19:13:02;;;;;;;9.65;3.58;;;18.80;99.90;;;;;;6108267;23;20053;-85
2023/06/15 19:15:50;;;;;;;4.53;3.60;;;18.70;99.90;;;;;;6125662;23;20110;-85
2023/06/15 19:18:40;;;;;;;5.28;3.63;;;18.70;99.90;;;;;;6127212;23;20435;-85
2023/06/15 19:22:03;;;;;;;5.03;3.53;;;18.50;99.90;;;;;;6106893;23;20032;-86
2023/06/15 19:24:50;;;;;;;;;;;18.40;99.90;;;;;;6068406;23;20123;-86
2023/06/15 19:27:38;;;;;;;4.80;3.25;;;18.20;99.90;;;;;;6126384;23;19992;-85
2023/06/15 19:30:25;;;;;;;3.50;3.20;;;18.00;99.90;;;;;;6125726;23;20030;-85
2023/06/15 19:33:15;;;;;;;4.70;3.67;;;17.90;99.90;;;;;;6126335;23;20026;-85
2023/06/15 19:36:05;;;;;;;3.75;3.38;;;17.90;99.90;;;;;;6105845;23;20085;-85
2023/06/15 19:38:52;;;;;;;4.25;3.17;;;17.90;99.90;;;;;;6126136;23;20148;-86
2023/06/15 19:41:52;;;;;;;4.72;3.38;;;17.70;99.90;;;;;;6123473;23;20132;-86
2023/06/15 19:44:39;;;;;;;5.10;3.42;;;17.50;99.90;;;;;;6104501;23;20086;-85
2023/06/15 19:47:28;;;;;;;4.50;3.83;;;17.40;99.90;;;;;;6125924;23;20048;-85
2023/06/15 19:50:17;;;;;;;6.45;3.97;;;17.20;99.90;;;;;;6110074;23;20030;-87
2023/06/15 19:53:05;;;;;;;5.32;3.75;;;17.20;99.90;;;;;;6129360;23;20105;-87
2023/06/15 19:55:55;;;;;;;5.20;3.95;;;17.30;99.90;;;;;;6126869;23;20307;-86
2023/06/15 19:58:42;;;;;;;6.03;3.80;;;17.20;99.90;;;;;;6126886;23;20108;-85
2023/06/15 20:01:34;;;;;;;5.32;3.22;;;17.20;99.90;;;;;;6124692;23;20021;-83
2023/06/15 20:04:22;;;;;;;4.50;3.40;;;17.20;99.90;;;;;;6126564;23;20128;-85
2023/06/15 20:07:10;;;;;;;4.78;3.60;;;17.20;99.90;;;;;;6125227;23;20095;-85
2023/06/15 20:09:58;;;;;;;4.43;3.65;;;17.10;99.90;;;;;;6125897;23;20089;-85
2023/06/15 20:12:46;;;;;;;7.72;3.70;;;17.10;99.90;;;;;;6124658;23;20413;-83
2023/06/15 20:15:42;;;;;;;4.30;3.70;;;17.30;99.90;;;;;;6127772;23;20379;-85
2023/06/15 20:18:30;;;;;;;6.57;3.97;;;17.30;99.90;;;;;;6125751;23;20121;-85
2023/06/15 20:21:27;;;;;;;8.07;3.70;;;17.30;99.90;;;;;;6124143;23;20031;-83
2023/06/15 20:24:43;;;;;;;5.45;3.58;;;17.20;99.90;;;;;;6126096;23;20026;-86
2023/06/15 20:27:31;;;;;;;6.18;3.45;;;17.00;99.90;;;;;;6103892;23;20022;-84
2023/06/15 20:34:03;;;;;;;4.03;3.28;;;16.80;99.90;;;;;;6124602;23;20033;-84
2023/06/15 20:36:51;;;;;;;5.15;3.53;;;16.70;99.90;;;;;;6126584;23;20036;-84
2023/06/15 20:39:44;;;;;;;7.15;4.25;;;16.60;99.90;;;;;;6127364;23;20429;-85
2023/06/15 20:42:32;;;;;;;5.63;4.25;;;16.40;99.90;;;;;;6126046;23;20030;-86
2023/06/15 20:45:19;;;;;;;8.27;4.28;;;16.30;99.90;;;;;;6133965;23;20184;-84
2023/06/15 20:48:06;;;;;;;9.65;4.32;;;16.30;99.90;;;;;;6133724;23;20026;-86
2023/06/15 20:50:55;;;;;;;6.88;4.15;;;16.30;99.90;;;;;;6131745;23;20026;-85
2023/06/15 20:53:42;;;;;;;7.03;3.80;;;16.20;99.90;;;;;;6132693;23;20313;-86
2023/06/15 20:56:30;;;;;;;4.32;3.47;;;16.10;99.90;;;;;;6126291;23;20030;-86
2023/06/15 20:59:17;;;;;;;6.20;3.92;;;16.00;99.90;;;;;;6127215;23;20056;-86
2023/06/15 21:02:05;;;;;;;5.53;3.88;;;15.80;99.90;;;;;;6104853;23;20032;-85
2023/06/15 21:04:54;;;;;;;4.88;3.60;;;15.60;99.90;;;;;;6126317;23;20112;-84
2023/06/15 21:07:42;;;;;;;8.98;4.65;;;15.50;99.90;;;;;;6124219;23;20421;-84
2023/06/15 21:10:30;;;;;;;5.05;3.90;;;15.30;99.90;;;;;;6125756;23;20317;-85
2023/06/15 21:13:17;;;;;;;5.95;4.15;;;15.30;99.90;;;;;;6124264;23;20299;-83
2023/06/15 21:16:15;;;;;;;6.35;4.07;;;15.20;99.90;;;;;;6106844;23;20030;-86
2023/06/15 21:19:06;;;;;;;10.38;5.90;;;15.10;99.90;;;;;;6129120;23;20050;-89
2023/06/15 21:22:00;;;;;;;7.88;5.53;;;15.10;99.90;;;;;;6124874;23;20052;-89
2023/06/15 21:25:23;;;;;;;6.40;4.70;;;15.10;99.90;;;;;;6108279;23;20048;-92
2023/06/15 21:28:11;;;;;;;7.60;5.38;;;15.20;99.90;;;;;;6127998;23;20313;-91
2023/06/15 21:34:06;;;;;;;5.38;4.25;;;15.20;99.90;;;;;;6127212;23;20022;-89
2023/06/15 21:37:09;;;;;;;5.82;4.30;;;15.20;99.90;;;;;;6106808;23;20050;-90
2023/06/15 21:39:56;;;;;;;7.57;5.18;;;15.10;99.90;;;;;;6125193;23;20389;-91
2023/06/15 21:42:48;;;;;;;6.28;4.78;;;15.00;99.90;;;;;;6106567;23;20026;-90
2023/06/15 21:45:36;;;;;;;8.80;4.13;;;14.90;99.90;;;;;;6125248;23;20022;-90
2023/06/15 21:48:23;;;;;;;6.22;4.80;;;14.90;99.90;;;;;;6105383;23;20306;-89
2023/06/15 21:51:12;;;;;;;4.45;3.90;;;14.90;99.90;;;;;;6125719;23;20152;-91
2023/06/15 21:54:02;;;;;;;7.57;4.43;;;14.90;99.90;;;;;;6105881;23;20026;-90